sensor_id;sensor_type;location;lat;lon;timestamp;P1;durP1;ratioP1;P2;durP2;ratioP2
75419;SDS011;63998;52.488;13.428;2024-02-21T00:00:30;12.75;;;4.53;;
75419;SDS011;63998;52.488;13.428;2024-02-21T00:03:00;11.60;;;4.95;;
75419;SDS011;63998;52.488;13.428;2024-02-21T00:05:35;13.38;;;4.78;;
75419;SDS011;63998;52.488;13.428;2024-02-21T00:08:03;12.25;;;5.20;;
75419;SDS011;63998;52.488;13.428;2024-02-21T00:10:37;14.13;;;4.68;;
75419;SDS011;63998;52.488;13.428;2024-02-21T00:13:23;12.70;;;4.80;;
75419;SDS011;63998;52.488;13.428;2024-02-21T00:16:07;16.90;;;4.90;;
75419;SDS011;63998;52.488;13.428;2024-02-21T00:18:43;16.13;;;4.55;;
75419;SDS011;63998;52.488;13.428;2024-02-21T00:21:34;12.70;;;4.28;;
75419;SDS011;63998;52.488;13.428;2024-02-21T00:24:22;12.63;;;4.30;;
75419;SDS011;63998;52.488;13.428;2024-02-21T00:26:53;17.60;;;4.55;;
75419;SDS011;63998;52.488;13.428;2024-02-21T00:29:43;15.05;;;5.00;;
75419;SDS011;63998;52.488;13.428;2024-02-21T00:32:46;11.93;;;4.05;;
75419;SDS011;63998;52.488;13.428;2024-02-21T00:35:52;14.35;;;4.70;;
75419;SDS011;63998;52.488;13.428;2024-02-21T00:38:35;12.85;;;4.22;;
75419;SDS011;63998;52.488;13.428;2024-02-21T00:41:10;11.32;;;4.60;;
75419;SDS011;63998;52.488;13.428;2024-02-21T00:43:51;12.02;;;5.38;;
75419;SDS011;63998;52.488;13.428;2024-02-21T00:46:52;11.00;;;4.55;;
75419;SDS011;63998;52.488;13.428;2024-02-21T00:49:36;12.93;;;4.13;;
75419;SDS011;63998;52.488;13.428;2024-02-21T00:52:29;12.27;;;4.25;;
75419;SDS011;63998;52.488;13.428;2024-02-21T00:55:08;9.43;;;3.70;;
75419;SDS011;63998;52.488;13.428;2024-02-21T00:57:58;14.02;;;4.55;;
75419;SDS011;63998;52.488;13.428;2024-02-21T01:00:34;15.50;;;4.28;;
75419;SDS011;63998;52.488;13.428;2024-02-21T01:03:04;10.68;;;4.13;;
75419;SDS011;63998;52.488;13.428;2024-02-21T01:06:13;15.25;;;3.97;;
75419;SDS011;63998;52.488;13.428;2024-02-21T01:08:53;11.77;;;4.63;;
75419;SDS011;63998;52.488;13.428;2024-02-21T01:11:50;14.63;;;3.92;;
75419;SDS011;63998;52.488;13.428;2024-02-21T01:14:40;13.45;;;4.55;;
75419;SDS011;63998;52.488;13.428;2024-02-21T01:17:13;13.27;;;3.72;;
75419;SDS011;63998;52.488;13.428;2024-02-21T01:19:54;9.55;;;3.92;;
75419;SDS011;63998;52.488;13.428;2024-02-21T01:26:08;8.40;;;3.80;;
75419;SDS011;63998;52.488;13.428;2024-02-21T01:28:58;8.00;;;3.22;;
75419;SDS011;63998;52.488;13.428;2024-02-21T01:31:49;8.35;;;3.75;;
75419;SDS011;63998;52.488;13.428;2024-02-21T01:34:51;7.95;;;3.47;;
75419;SDS011;63998;52.488;13.428;2024-02-21T01:37:27;9.73;;;3.30;;
75419;SDS011;63998;52.488;13.428;2024-02-21T01:40:09;9.27;;;3.83;;
75419;SDS011;63998;52.488;13.428;2024-02-21T01:42:54;7.95;;;2.90;;
75419;SDS011;63998;52.488;13.428;2024-02-21T01:51:47;8.80;;;3.30;;
75419;SDS011;63998;52.488;13.428;2024-02-21T01:54:29;12.45;;;4.10;;
75419;SDS011;63998;52.488;13.428;2024-02-21T01:57:07;9.30;;;3.55;;
75419;SDS011;63998;52.488;13.428;2024-02-21T01:59:54;9.45;;;3.33;;
75419;SDS011;63998;52.488;13.428;2024-02-21T02:09:29;12.20;;;3.88;;
75419;SDS011;63998;52.488;13.428;2024-02-21T02:12:45;7.05;;;3.65;;
75419;SDS011;63998;52.488;13.428;2024-02-21T02:15:47;9.93;;;3.55;;
75419;SDS011;63998;52.488;13.428;2024-02-21T02:21:40;13.52;;;4.53;;
75419;SDS011;63998;52.488;13.428;2024-02-21T02:24:40;11.93;;;3.75;;
75419;SDS011;63998;52.488;13.428;2024-02-21T02:27:49;6.75;;;3.28;;
75419;SDS011;63998;52.488;13.428;2024-02-21T02:30:20;9.80;;;3.33;;
75419;SDS011;63998;52.488;13.428;2024-02-21T02:32:50;9.95;;;3.45;;
75419;SDS011;63998;52.488;13.428;2024-02-21T02:35:33;9.10;;;3.63;;
75419;SDS011;63998;52.488;13.428;2024-02-21T02:38:08;11.52;;;3.72;;
75419;SDS011;63998;52.488;13.428;2024-02-21T02:40:34;11.23;;;3.30;;
75419;SDS011;63998;52.488;13.428;2024-02-21T02:43:00;12.85;;;3.78;;
75419;SDS011;63998;52.488;13.428;2024-02-21T02:45:29;11.30;;;4.03;;
75419;SDS011;63998;52.488;13.428;2024-02-21T02:47:54;12.57;;;3.70;;
75419;SDS011;63998;52.488;13.428;2024-02-21T02:50:22;8.57;;;3.65;;
75419;SDS011;63998;52.488;13.428;2024-02-21T02:52:51;12.93;;;4.35;;
75419;SDS011;63998;52.488;13.428;2024-02-21T02:55:19;9.40;;;3.28;;
75419;SDS011;63998;52.488;13.428;2024-02-21T02:57:44;10.55;;;4.28;;
75419;SDS011;63998;52.488;13.428;2024-02-21T03:00:13;13.43;;;4.10;;
75419;SDS011;63998;52.488;13.428;2024-02-21T03:02:40;13.95;;;4.80;;
75419;SDS011;63998;52.488;13.428;2024-02-21T03:05:14;14.65;;;4.65;;
75419;SDS011;63998;52.488;13.428;2024-02-21T03:07:41;11.02;;;3.92;;
75419;SDS011;63998;52.488;13.428;2024-02-21T03:10:07;10.38;;;4.22;;
75419;SDS011;63998;52.488;13.428;2024-02-21T03:12:33;15.80;;;4.85;;
75419;SDS011;63998;52.488;13.428;2024-02-21T03:14:59;15.00;;;4.70;;
75419;SDS011;63998;52.488;13.428;2024-02-21T03:17:24;11.52;;;4.03;;
75419;SDS011;63998;52.488;13.428;2024-02-21T03:19:52;14.90;;;4.03;;
75419;SDS011;63998;52.488;13.428;2024-02-21T03:22:17;11.38;;;4.45;;
75419;SDS011;63998;52.488;13.428;2024-02-21T03:24:45;10.80;;;3.88;;
75419;SDS011;63998;52.488;13.428;2024-02-21T03:27:13;15.20;;;4.53;;
75419;SDS011;63998;52.488;13.428;2024-02-21T03:29:42;13.30;;;5.38;;
75419;SDS011;63998;52.488;13.428;2024-02-21T03:32:07;15.55;;;4.70;;
75419;SDS011;63998;52.488;13.428;2024-02-21T03:34:33;11.98;;;3.50;;
75419;SDS011;63998;52.488;13.428;2024-02-21T03:37:01;11.63;;;4.60;;
75419;SDS011;63998;52.488;13.428;2024-02-21T03:39:26;12.90;;;5.15;;
75419;SDS011;63998;52.488;13.428;2024-02-21T03:41:52;14.23;;;5.05;;
75419;SDS011;63998;52.488;13.428;2024-02-21T03:44:17;12.18;;;4.78;;
75419;SDS011;63998;52.488;13.428;2024-02-21T03:46:42;9.93;;;4.82;;
75419;SDS011;63998;52.488;13.428;2024-02-21T03:49:08;14.73;;;5.15;;
75419;SDS011;63998;52.488;13.428;2024-02-21T03:51:33;16.45;;;4.85;;
75419;SDS011;63998;52.488;13.428;2024-02-21T03:54:02;16.83;;;6.00;;
75419;SDS011;63998;52.488;13.428;2024-02-21T03:56:27;18.48;;;5.50;;
75419;SDS011;63998;52.488;13.428;2024-02-21T03:58:52;16.17;;;5.53;;
75419;SDS011;63998;52.488;13.428;2024-02-21T04:01:18;14.98;;;5.05;;
75419;SDS011;63998;52.488;13.428;2024-02-21T04:03:43;17.40;;;5.78;;
75419;SDS011;63998;52.488;13.428;2024-02-21T04:06:09;13.80;;;5.43;;
75419;SDS011;63998;52.488;13.428;2024-02-21T04:08:35;14.02;;;5.55;;
75419;SDS011;63998;52.488;13.428;2024-02-21T04:11:00;15.68;;;5.63;;
75419;SDS011;63998;52.488;13.428;2024-02-21T04:13:25;16.67;;;6.10;;
75419;SDS011;63998;52.488;13.428;2024-02-21T04:15:51;18.25;;;5.18;;
75419;SDS011;63998;52.488;13.428;2024-02-21T04:18:17;16.92;;;5.40;;
75419;SDS011;63998;52.488;13.428;2024-02-21T04:20:42;18.98;;;5.85;;
75419;SDS011;63998;52.488;13.428;2024-02-21T04:23:08;17.42;;;5.00;;
75419;SDS011;63998;52.488;13.428;2024-02-21T04:25:36;10.75;;;5.32;;
75419;SDS011;63998;52.488;13.428;2024-02-21T04:28:02;17.42;;;5.05;;
75419;SDS011;63998;52.488;13.428;2024-02-21T04:30:28;14.32;;;4.57;;
75419;SDS011;63998;52.488;13.428;2024-02-21T04:32:56;17.42;;;5.93;;
75419;SDS011;63998;52.488;13.428;2024-02-21T04:35:27;14.32;;;4.22;;
75419;SDS011;63998;52.488;13.428;2024-02-21T04:37:52;14.65;;;5.30;;
75419;SDS011;63998;52.488;13.428;2024-02-21T04:40:17;20.20;;;5.45;;
75419;SDS011;63998;52.488;13.428;2024-02-21T04:42:43;15.95;;;5.45;;
75419;SDS011;63998;52.488;13.428;2024-02-21T04:45:30;10.38;;;4.25;;
75419;SDS011;63998;52.488;13.428;2024-02-21T04:48:04;12.13;;;4.35;;
75419;SDS011;63998;52.488;13.428;2024-02-21T04:50:30;19.00;;;5.22;;
75419;SDS011;63998;52.488;13.428;2024-02-21T04:52:55;10.90;;;5.27;;
75419;SDS011;63998;52.488;13.428;2024-02-21T04:55:21;14.50;;;4.97;;
75419;SDS011;63998;52.488;13.428;2024-02-21T04:57:46;11.40;;;4.75;;
75419;SDS011;63998;52.488;13.428;2024-02-21T05:00:11;16.53;;;5.43;;
75419;SDS011;63998;52.488;13.428;2024-02-21T05:02:37;15.13;;;4.78;;
75419;SDS011;63998;52.488;13.428;2024-02-21T05:05:03;12.43;;;5.20;;
75419;SDS011;63998;52.488;13.428;2024-02-21T05:07:28;10.75;;;4.82;;
75419;SDS011;63998;52.488;13.428;2024-02-21T05:09:54;17.53;;;5.70;;
75419;SDS011;63998;52.488;13.428;2024-02-21T05:12:19;14.80;;;5.40;;
75419;SDS011;63998;52.488;13.428;2024-02-21T05:14:45;12.43;;;4.85;;
75419;SDS011;63998;52.488;13.428;2024-02-21T05:17:10;15.93;;;5.32;;
75419;SDS011;63998;52.488;13.428;2024-02-21T05:19:36;10.43;;;5.10;;
75419;SDS011;63998;52.488;13.428;2024-02-21T05:22:01;16.50;;;5.05;;
75419;SDS011;63998;52.488;13.428;2024-02-21T05:24:26;17.50;;;5.40;;
75419;SDS011;63998;52.488;13.428;2024-02-21T05:26:53;14.63;;;5.20;;
75419;SDS011;63998;52.488;13.428;2024-02-21T05:29:19;15.65;;;5.95;;
75419;SDS011;63998;52.488;13.428;2024-02-21T05:34:18;13.45;;;4.88;;
75419;SDS011;63998;52.488;13.428;2024-02-21T05:36:46;15.80;;;5.20;;
75419;SDS011;63998;52.488;13.428;2024-02-21T05:39:14;21.70;;;5.07;;
75419;SDS011;63998;52.488;13.428;2024-02-21T05:41:42;16.90;;;6.35;;
75419;SDS011;63998;52.488;13.428;2024-02-21T05:44:08;13.53;;;5.27;;
75419;SDS011;63998;52.488;13.428;2024-02-21T05:46:33;17.30;;;5.15;;
75419;SDS011;63998;52.488;13.428;2024-02-21T05:48:59;11.23;;;4.80;;
75419;SDS011;63998;52.488;13.428;2024-02-21T05:51:24;14.07;;;5.95;;
75419;SDS011;63998;52.488;13.428;2024-02-21T05:53:49;13.77;;;5.90;;
75419;SDS011;63998;52.488;13.428;2024-02-21T05:56:15;17.87;;;6.03;;
75419;SDS011;63998;52.488;13.428;2024-02-21T05:58:40;13.25;;;4.63;;
75419;SDS011;63998;52.488;13.428;2024-02-21T06:01:07;16.00;;;4.82;;
75419;SDS011;63998;52.488;13.428;2024-02-21T06:03:33;12.90;;;5.70;;
75419;SDS011;63998;52.488;13.428;2024-02-21T06:05:59;13.65;;;4.63;;
75419;SDS011;63998;52.488;13.428;2024-02-21T06:08:24;12.65;;;4.88;;
75419;SDS011;63998;52.488;13.428;2024-02-21T06:10:50;13.67;;;4.97;;
75419;SDS011;63998;52.488;13.428;2024-02-21T06:13:19;17.80;;;6.57;;
75419;SDS011;63998;52.488;13.428;2024-02-21T06:15:46;16.58;;;6.10;;
75419;SDS011;63998;52.488;13.428;2024-02-21T06:18:11;12.65;;;5.50;;
75419;SDS011;63998;52.488;13.428;2024-02-21T06:31:07;12.10;;;4.40;;
75419;SDS011;63998;52.488;13.428;2024-02-21T06:33:33;12.53;;;4.33;;
75419;SDS011;63998;52.488;13.428;2024-02-21T06:35:58;13.40;;;5.50;;
75419;SDS011;63998;52.488;13.428;2024-02-21T06:38:23;14.73;;;4.67;;
75419;SDS011;63998;52.488;13.428;2024-02-21T07:01:53;11.43;;;5.60;;
75419;SDS011;63998;52.488;13.428;2024-02-21T07:08:03;10.45;;;4.53;;
75419;SDS011;63998;52.488;13.428;2024-02-21T07:14:52;8.32;;;3.65;;
75419;SDS011;63998;52.488;13.428;2024-02-21T07:17:17;12.95;;;4.32;;
75419;SDS011;63998;52.488;13.428;2024-02-21T07:19:42;14.47;;;5.50;;
75419;SDS011;63998;52.488;13.428;2024-02-21T07:22:07;10.57;;;5.17;;
75419;SDS011;63998;52.488;13.428;2024-02-21T07:24:34;12.63;;;3.90;;
75419;SDS011;63998;52.488;13.428;2024-02-21T07:26:59;14.53;;;5.47;;
75419;SDS011;63998;52.488;13.428;2024-02-21T07:31:57;16.25;;;5.45;;
75419;SDS011;63998;52.488;13.428;2024-02-21T07:34:22;15.63;;;5.27;;
75419;SDS011;63998;52.488;13.428;2024-02-21T07:36:47;11.80;;;5.20;;
75419;SDS011;63998;52.488;13.428;2024-02-21T07:39:12;8.40;;;3.93;;
75419;SDS011;63998;52.488;13.428;2024-02-21T07:41:38;12.73;;;5.07;;
75419;SDS011;63998;52.488;13.428;2024-02-21T07:44:04;12.07;;;4.60;;
75419;SDS011;63998;52.488;13.428;2024-02-21T07:46:30;12.35;;;4.97;;
75419;SDS011;63998;52.488;13.428;2024-02-21T07:48:57;11.82;;;3.88;;
75419;SDS011;63998;52.488;13.428;2024-02-21T08:22:37;11.68;;;5.40;;
75419;SDS011;63998;52.488;13.428;2024-02-21T08:28:38;11.82;;;4.45;;
75419;SDS011;63998;52.488;13.428;2024-02-21T11:09:02;10.73;;;5.13;;
75419;SDS011;63998;52.488;13.428;2024-02-21T11:11:41;9.10;;;5.28;;
75419;SDS011;63998;52.488;13.428;2024-02-21T11:14:18;11.35;;;5.25;;
75419;SDS011;63998;52.488;13.428;2024-02-21T11:16:45;9.98;;;4.82;;
75419;SDS011;63998;52.488;13.428;2024-02-21T11:19:21;11.00;;;5.70;;
75419;SDS011;63998;52.488;13.428;2024-02-21T11:21:47;11.93;;;5.43;;
75419;SDS011;63998;52.488;13.428;2024-02-21T11:24:13;13.88;;;5.28;;
75419;SDS011;63998;52.488;13.428;2024-02-21T11:26:39;11.73;;;5.53;;
75419;SDS011;63998;52.488;13.428;2024-02-21T11:29:07;9.30;;;4.32;;
75419;SDS011;63998;52.488;13.428;2024-02-21T11:31:44;11.65;;;4.47;;
75419;SDS011;63998;52.488;13.428;2024-02-21T11:34:16;14.00;;;5.10;;
75419;SDS011;63998;52.488;13.428;2024-02-21T11:36:49;12.07;;;4.80;;
75419;SDS011;63998;52.488;13.428;2024-02-21T13:02:22;4.18;;;2.17;;
75419;SDS011;63998;52.488;13.428;2024-02-21T13:04:48;4.32;;;2.35;;
75419;SDS011;63998;52.488;13.428;2024-02-21T13:07:13;2.95;;;2.20;;
75419;SDS011;63998;52.488;13.428;2024-02-21T13:09:39;5.25;;;3.13;;
75419;SDS011;63998;52.488;13.428;2024-02-21T13:12:05;4.32;;;2.72;;
75419;SDS011;63998;52.488;13.428;2024-02-21T13:14:31;5.25;;;2.75;;
75419;SDS011;63998;52.488;13.428;2024-02-21T13:16:58;4.63;;;2.90;;
75419;SDS011;63998;52.488;13.428;2024-02-21T13:19:23;7.45;;;3.03;;
75419;SDS011;63998;52.488;13.428;2024-02-21T13:21:48;3.90;;;2.83;;
75419;SDS011;63998;52.488;13.428;2024-02-21T13:24:14;5.35;;;3.10;;
75419;SDS011;63998;52.488;13.428;2024-02-21T13:26:39;6.67;;;3.43;;
75419;SDS011;63998;52.488;13.428;2024-02-21T13:29:04;6.03;;;3.20;;
75419;SDS011;63998;52.488;13.428;2024-02-21T13:31:30;6.23;;;3.03;;
75419;SDS011;63998;52.488;13.428;2024-02-21T13:33:55;6.00;;;2.83;;
75419;SDS011;63998;52.488;13.428;2024-02-21T13:36:20;6.87;;;3.00;;
75419;SDS011;63998;52.488;13.428;2024-02-21T13:38:46;7.23;;;3.03;;
75419;SDS011;63998;52.488;13.428;2024-02-21T13:41:12;7.38;;;3.72;;
75419;SDS011;63998;52.488;13.428;2024-02-21T13:43:37;7.07;;;2.85;;
75419;SDS011;63998;52.488;13.428;2024-02-21T13:46:02;7.30;;;3.70;;
75419;SDS011;63998;52.488;13.428;2024-02-21T13:48:30;6.57;;;3.78;;
75419;SDS011;63998;52.488;13.428;2024-02-21T13:50:55;7.07;;;3.63;;
75419;SDS011;63998;52.488;13.428;2024-02-21T13:53:21;6.43;;;3.72;;
75419;SDS011;63998;52.488;13.428;2024-02-21T13:55:47;10.48;;;4.40;;
75419;SDS011;63998;52.488;13.428;2024-02-21T13:58:13;7.00;;;3.67;;
75419;SDS011;63998;52.488;13.428;2024-02-21T14:00:39;7.55;;;2.97;;
75419;SDS011;63998;52.488;13.428;2024-02-21T14:03:04;7.90;;;3.17;;
75419;SDS011;63998;52.488;13.428;2024-02-21T14:05:29;6.93;;;3.53;;
75419;SDS011;63998;52.488;13.428;2024-02-21T14:07:55;7.07;;;3.03;;
75419;SDS011;63998;52.488;13.428;2024-02-21T14:10:21;5.88;;;3.20;;
75419;SDS011;63998;52.488;13.428;2024-02-21T14:12:47;4.80;;;3.13;;
75419;SDS011;63998;52.488;13.428;2024-02-21T14:15:15;6.25;;;2.60;;
75419;SDS011;63998;52.488;13.428;2024-02-21T14:17:41;6.95;;;3.03;;
75419;SDS011;63998;52.488;13.428;2024-02-21T14:20:07;7.13;;;2.75;;
75419;SDS011;63998;52.488;13.428;2024-02-21T14:22:33;6.38;;;2.92;;
75419;SDS011;63998;52.488;13.428;2024-02-21T14:24:59;5.65;;;2.65;;
75419;SDS011;63998;52.488;13.428;2024-02-21T14:27:25;5.03;;;2.70;;
75419;SDS011;63998;52.488;13.428;2024-02-21T14:29:51;3.90;;;2.03;;
75419;SDS011;63998;52.488;13.428;2024-02-21T14:32:16;5.88;;;3.38;;
75419;SDS011;63998;52.488;13.428;2024-02-21T14:34:41;7.07;;;2.95;;
75419;SDS011;63998;52.488;13.428;2024-02-21T14:37:07;7.43;;;3.20;;
75419;SDS011;63998;52.488;13.428;2024-02-21T14:39:32;7.20;;;3.27;;
75419;SDS011;63998;52.488;13.428;2024-02-21T14:41:59;5.70;;;2.97;;
75419;SDS011;63998;52.488;13.428;2024-02-21T14:44:25;7.20;;;2.80;;
75419;SDS011;63998;52.488;13.428;2024-02-21T14:46:50;7.90;;;3.00;;
75419;SDS011;63998;52.488;13.428;2024-02-21T14:49:16;7.00;;;3.00;;
75419;SDS011;63998;52.488;13.428;2024-02-21T14:51:41;8.43;;;3.10;;
75419;SDS011;63998;52.488;13.428;2024-02-21T14:54:06;6.63;;;3.03;;
75419;SDS011;63998;52.488;13.428;2024-02-21T14:56:32;6.07;;;3.00;;
75419;SDS011;63998;52.488;13.428;2024-02-21T14:58:57;7.20;;;2.97;;
75419;SDS011;63998;52.488;13.428;2024-02-21T15:01:23;6.75;;;3.30;;
75419;SDS011;63998;52.488;13.428;2024-02-21T15:03:48;4.28;;;1.80;;
75419;SDS011;63998;52.488;13.428;2024-02-21T15:06:14;6.10;;;3.10;;
75419;SDS011;63998;52.488;13.428;2024-02-21T15:08:39;8.37;;;2.70;;
75419;SDS011;63998;52.488;13.428;2024-02-21T15:11:04;7.07;;;2.53;;
75419;SDS011;63998;52.488;13.428;2024-02-21T15:13:30;10.65;;;3.13;;
75419;SDS011;63998;52.488;13.428;2024-02-21T15:15:56;3.97;;;2.13;;
75419;SDS011;63998;52.488;13.428;2024-02-21T15:18:21;6.80;;;3.10;;
75419;SDS011;63998;52.488;13.428;2024-02-21T15:20:47;5.60;;;2.83;;
75419;SDS011;63998;52.488;13.428;2024-02-21T15:23:12;4.87;;;2.40;;
75419;SDS011;63998;52.488;13.428;2024-02-21T15:25:37;5.37;;;2.77;;
75419;SDS011;63998;52.488;13.428;2024-02-21T15:28:03;7.73;;;2.73;;
75419;SDS011;63998;52.488;13.428;2024-02-21T15:30:31;7.93;;;2.67;;
75419;SDS011;63998;52.488;13.428;2024-02-21T15:32:57;8.57;;;3.15;;
75419;SDS011;63998;52.488;13.428;2024-02-21T15:35:26;5.47;;;2.40;;
75419;SDS011;63998;52.488;13.428;2024-02-21T15:37:54;6.28;;;2.72;;
75419;SDS011;63998;52.488;13.428;2024-02-21T15:40:23;8.60;;;2.80;;
75419;SDS011;63998;52.488;13.428;2024-02-21T15:42:49;4.80;;;2.90;;
75419;SDS011;63998;52.488;13.428;2024-02-21T15:45:14;5.20;;;2.70;;
75419;SDS011;63998;52.488;13.428;2024-02-21T15:47:40;6.25;;;2.63;;
75419;SDS011;63998;52.488;13.428;2024-02-21T17:37:49;6.47;;;3.33;;
75419;SDS011;63998;52.488;13.428;2024-02-21T18:58:37;9.65;;;4.55;;
75419;SDS011;63998;52.488;13.428;2024-02-21T19:01:02;12.60;;;4.80;;
75419;SDS011;63998;52.488;13.428;2024-02-21T19:03:30;6.82;;;3.92;;
75419;SDS011;63998;52.488;13.428;2024-02-21T19:05:55;5.13;;;3.60;;
75419;SDS011;63998;52.488;13.428;2024-02-21T19:08:21;7.85;;;3.75;;
75419;SDS011;63998;52.488;13.428;2024-02-21T19:36:38;9.35;;;3.95;;
75419;SDS011;63998;52.488;13.428;2024-02-21T20:10:43;8.20;;;4.72;;
75419;SDS011;63998;52.488;13.428;2024-02-21T20:13:08;7.43;;;5.13;;
75419;SDS011;63998;52.488;13.428;2024-02-21T20:15:33;8.80;;;4.75;;
75419;SDS011;63998;52.488;13.428;2024-02-21T20:17:59;7.43;;;4.80;;
75419;SDS011;63998;52.488;13.428;2024-02-21T20:20:24;9.63;;;4.80;;
75419;SDS011;63998;52.488;13.428;2024-02-21T20:22:49;9.20;;;4.83;;
75419;SDS011;63998;52.488;13.428;2024-02-21T20:25:15;8.55;;;4.80;;
75419;SDS011;63998;52.488;13.428;2024-02-21T20:27:41;10.93;;;5.68;;
75419;SDS011;63998;52.488;13.428;2024-02-21T20:30:06;7.10;;;4.90;;
75419;SDS011;63998;52.488;13.428;2024-02-21T20:32:33;9.00;;;4.88;;
75419;SDS011;63998;52.488;13.428;2024-02-21T20:34:58;7.63;;;4.72;;
75419;SDS011;63998;52.488;13.428;2024-02-21T20:37:24;7.93;;;5.00;;
75419;SDS011;63998;52.488;13.428;2024-02-21T20:39:49;9.17;;;4.70;;
75419;SDS011;63998;52.488;13.428;2024-02-21T20:42:14;11.70;;;4.83;;
75419;SDS011;63998;52.488;13.428;2024-02-21T20:44:42;5.78;;;4.18;;
75419;SDS011;63998;52.488;13.428;2024-02-21T20:47:08;8.93;;;5.22;;
75419;SDS011;63998;52.488;13.428;2024-02-21T20:49:35;10.45;;;5.32;;
75419;SDS011;63998;52.488;13.428;2024-02-21T20:52:01;8.98;;;4.35;;
75419;SDS011;63998;52.488;13.428;2024-02-21T20:54:27;7.82;;;5.05;;
75419;SDS011;63998;52.488;13.428;2024-02-21T20:56:52;9.57;;;5.10;;
75419;SDS011;63998;52.488;13.428;2024-02-21T20:59:18;7.30;;;4.40;;
75419;SDS011;63998;52.488;13.428;2024-02-21T21:01:44;11.85;;;4.90;;
75419;SDS011;63998;52.488;13.428;2024-02-21T21:04:09;7.88;;;4.57;;
75419;SDS011;63998;52.488;13.428;2024-02-21T21:06:35;7.75;;;4.70;;
75419;SDS011;63998;52.488;13.428;2024-02-21T21:09:00;6.27;;;4.10;;
75419;SDS011;63998;52.488;13.428;2024-02-21T21:11:25;9.00;;;4.25;;
75419;SDS011;63998;52.488;13.428;2024-02-21T21:13:51;9.70;;;4.93;;
75419;SDS011;63998;52.488;13.428;2024-02-21T21:16:16;7.43;;;4.43;;
75419;SDS011;63998;52.488;13.428;2024-02-21T21:18:41;8.63;;;4.57;;
75419;SDS011;63998;52.488;13.428;2024-02-21T21:21:07;8.82;;;4.57;;
75419;SDS011;63998;52.488;13.428;2024-02-21T21:23:32;5.80;;;4.00;;
75419;SDS011;63998;52.488;13.428;2024-02-21T21:25:58;10.27;;;4.40;;
75419;SDS011;63998;52.488;13.428;2024-02-21T21:28:23;8.20;;;4.30;;
75419;SDS011;63998;52.488;13.428;2024-02-21T21:30:50;9.85;;;4.07;;
75419;SDS011;63998;52.488;13.428;2024-02-21T21:33:15;6.45;;;4.03;;
75419;SDS011;63998;52.488;13.428;2024-02-21T21:35:40;5.70;;;3.80;;
75419;SDS011;63998;52.488;13.428;2024-02-21T21:38:05;7.60;;;3.70;;
75419;SDS011;63998;52.488;13.428;2024-02-21T21:40:31;7.10;;;3.50;;
75419;SDS011;63998;52.488;13.428;2024-02-21T21:42:57;6.22;;;3.53;;
75419;SDS011;63998;52.488;13.428;2024-02-21T21:45:23;6.18;;;3.45;;
75419;SDS011;63998;52.488;13.428;2024-02-21T21:47:49;5.22;;;3.10;;
75419;SDS011;63998;52.488;13.428;2024-02-21T21:50:15;7.00;;;3.03;;
75419;SDS011;63998;52.488;13.428;2024-02-21T21:52:40;7.20;;;3.20;;
75419;SDS011;63998;52.488;13.428;2024-02-21T21:55:06;10.37;;;3.10;;
75419;SDS011;63998;52.488;13.428;2024-02-21T21:57:31;4.20;;;2.53;;
75419;SDS011;63998;52.488;13.428;2024-02-21T21:59:57;8.80;;;3.15;;
75419;SDS011;63998;52.488;13.428;2024-02-21T22:02:22;4.50;;;2.60;;
75419;SDS011;63998;52.488;13.428;2024-02-21T22:04:50;6.63;;;3.00;;
75419;SDS011;63998;52.488;13.428;2024-02-21T22:07:16;6.65;;;3.15;;
75419;SDS011;63998;52.488;13.428;2024-02-21T22:09:41;7.07;;;2.75;;
75419;SDS011;63998;52.488;13.428;2024-02-21T22:12:07;7.33;;;2.80;;
75419;SDS011;63998;52.488;13.428;2024-02-21T22:14:32;6.53;;;3.10;;
75419;SDS011;63998;52.488;13.428;2024-02-21T22:16:57;5.93;;;2.50;;
75419;SDS011;63998;52.488;13.428;2024-02-21T22:19:23;4.37;;;2.60;;
75419;SDS011;63998;52.488;13.428;2024-02-21T22:21:48;7.10;;;2.53;;
75419;SDS011;63998;52.488;13.428;2024-02-21T22:24:13;4.25;;;2.40;;
75419;SDS011;63998;52.488;13.428;2024-02-21T22:26:39;4.55;;;2.70;;
75419;SDS011;63998;52.488;13.428;2024-02-21T22:29:04;5.07;;;2.83;;
75419;SDS011;63998;52.488;13.428;2024-02-21T22:31:29;5.85;;;2.70;;
75419;SDS011;63998;52.488;13.428;2024-02-21T22:33:55;7.73;;;2.40;;
75419;SDS011;63998;52.488;13.428;2024-02-21T22:36:23;3.33;;;2.30;;
75419;SDS011;63998;52.488;13.428;2024-02-21T22:38:49;4.55;;;2.53;;
75419;SDS011;63998;52.488;13.428;2024-02-21T22:41:15;7.20;;;3.05;;
75419;SDS011;63998;52.488;13.428;2024-02-21T22:43:40;6.13;;;2.90;;
75419;SDS011;63998;52.488;13.428;2024-02-21T22:46:06;5.72;;;2.95;;
75419;SDS011;63998;52.488;13.428;2024-02-21T22:48:31;4.53;;;2.23;;
75419;SDS011;63998;52.488;13.428;2024-02-21T22:50:57;5.30;;;2.10;;
75419;SDS011;63998;52.488;13.428;2024-02-21T22:53:23;4.60;;;2.53;;
75419;SDS011;63998;52.488;13.428;2024-02-21T22:55:48;4.85;;;2.63;;
75419;SDS011;63998;52.488;13.428;2024-02-21T22:58:14;4.63;;;2.30;;
75419;SDS011;63998;52.488;13.428;2024-02-21T23:00:39;6.47;;;2.40;;
75419;SDS011;63998;52.488;13.428;2024-02-21T23:03:04;6.17;;;2.27;;
75419;SDS011;63998;52.488;13.428;2024-02-21T23:05:30;5.13;;;2.37;;
75419;SDS011;63998;52.488;13.428;2024-02-21T23:07:55;5.22;;;2.10;;
75419;SDS011;63998;52.488;13.428;2024-02-21T23:10:21;6.97;;;2.63;;
75419;SDS011;63998;52.488;13.428;2024-02-21T23:12:50;5.15;;;2.40;;
75419;SDS011;63998;52.488;13.428;2024-02-21T23:15:16;4.30;;;2.60;;
75419;SDS011;63998;52.488;13.428;2024-02-21T23:17:41;3.67;;;2.45;;
75419;SDS011;63998;52.488;13.428;2024-02-21T23:20:07;4.50;;;2.17;;
75419;SDS011;63998;52.488;13.428;2024-02-21T23:22:32;4.50;;;2.45;;
75419;SDS011;63998;52.488;13.428;2024-02-21T23:24:58;6.47;;;2.10;;
75419;SDS011;63998;52.488;13.428;2024-02-21T23:27:24;6.43;;;2.77;;
75419;SDS011;63998;52.488;13.428;2024-02-21T23:29:49;6.73;;;2.17;;
75419;SDS011;63998;52.488;13.428;2024-02-21T23:32:14;6.90;;;2.55;;
75419;SDS011;63998;52.488;13.428;2024-02-21T23:34:40;5.70;;;2.20;;
75419;SDS011;63998;52.488;13.428;2024-02-21T23:37:05;5.87;;;2.40;;
75419;SDS011;63998;52.488;13.428;2024-02-21T23:39:31;5.85;;;2.15;;
75419;SDS011;63998;52.488;13.428;2024-02-21T23:41:57;7.07;;;2.15;;
75419;SDS011;63998;52.488;13.428;2024-02-21T23:44:22;5.67;;;1.90;;
75419;SDS011;63998;52.488;13.428;2024-02-21T23:46:48;3.35;;;2.08;;
75419;SDS011;63998;52.488;13.428;2024-02-21T23:49:13;4.93;;;2.40;;
75419;SDS011;63998;52.488;13.428;2024-02-21T23:51:39;4.30;;;2.15;;
75419;SDS011;63998;52.488;13.428;2024-02-21T23:54:05;4.57;;;2.33;;
75419;SDS011;63998;52.488;13.428;2024-02-21T23:56:30;3.07;;;2.07;;
75419;SDS011;63998;52.488;13.428;2024-02-21T23:58:55;5.17;;;1.83;;
